Terminal Aerodrome Forecast
Issued by NWS

Home | Current Version | Previous Version | Graphics & Text | Print | Product List | Glossary On
Versions: 1 2 3 4 5 6 7 8 9 10 11 12 13 14 15 16 17 18 19 20 21 22 23 24 25 26 27 28 29 30 31 32 33 34 35 36 37 38 39 40 41 42 43 44 45 46 47 48 49 50
495
FTUS43 KLOT 200900 AAA
TAFGYY
TAF AMD
KGYY 200900Z 2009/2106 21012KT 4SM -RA BR SCT009 OVC018
      TEMPO 2010/2013 1SM BR SCT005 OVC009
     FM201300 21014G21KT 1 1/2SM -SHRA BR OVC005 WS020/22055KT
     FM201700 21017G25KT 3SM RA BR SCT005 OVC008 WS020/22055KT
      TEMPO 2018/2022 2SM TSRA BR OVC005CB
     FM202200 27011KT 2SM -SHRA BR OVC004
     FM210200 31012KT 6SM -SHRA BR OVC008=

USA.gov is the U.S. government's official web portal to all federal, state and local government web resources and services.